createdAt,value
2017-11-10T00:02:02.140Z,17.70
2017-11-10T00:04:31.180Z,14.97
2017-11-10T00:06:59.428Z,15.50
2017-11-10T00:09:27.671Z,14.33
2017-11-10T00:11:55.943Z,15.80
2017-11-10T00:14:24.187Z,14.20
2017-11-10T00:16:52.434Z,12.60
2017-11-10T00:19:21.064Z,15.30
2017-11-10T00:21:49.311Z,17.60
2017-11-10T00:24:17.557Z,16.43
2017-11-10T00:26:46.595Z,16.30
2017-11-10T00:29:14.877Z,17.57
2017-11-10T00:31:43.120Z,16.87
2017-11-10T00:34:11.585Z,18.23
2017-11-10T00:36:39.823Z,17.50
2017-11-10T00:39:08.075Z,17.30
2017-11-10T00:41:36.875Z,18.07
2017-11-10T00:44:05.124Z,17.70
2017-11-10T00:46:33.371Z,16.43
2017-11-10T00:49:02.402Z,17.73
2017-11-10T00:51:31.847Z,16.87
2017-11-10T00:54:00.090Z,17.43
2017-11-10T00:56:28.479Z,19.43
2017-11-10T00:58:59.203Z,17.57
2017-11-10T01:01:27.448Z,16.13
2017-11-10T01:03:56.088Z,17.73
2017-11-10T01:06:24.326Z,16.70
2017-11-10T01:08:52.576Z,16.80
2017-11-10T01:11:20.839Z,18.37
2017-11-10T01:13:49.998Z,17.70
2017-11-10T01:16:18.242Z,19.17
2017-11-10T01:18:46.511Z,17.00
2017-11-10T01:21:15.522Z,17.77
2017-11-10T01:23:43.766Z,17.43
2017-11-10T01:26:12.298Z,18.93
2017-11-10T01:28:40.546Z,16.57
2017-11-10T01:31:08.791Z,18.07
2017-11-10T01:33:37.053Z,17.13
2017-11-10T01:36:05.567Z,19.00
2017-11-10T01:38:34.571Z,19.00
2017-11-10T01:41:03.009Z,19.13
2017-11-10T01:43:31.249Z,19.03
2017-11-10T01:45:59.498Z,19.77
2017-11-10T01:48:30.744Z,22.30
2017-11-10T01:50:59.758Z,21.30
2017-11-10T01:53:28.004Z,20.43
2017-11-10T01:55:56.275Z,21.10
2017-11-10T01:58:24.514Z,20.03
2017-11-10T02:00:52.759Z,22.33
2017-11-10T02:03:21.031Z,20.30
2017-11-10T02:05:49.270Z,22.30
2017-11-10T02:08:17.513Z,22.10
2017-11-10T02:10:46.205Z,23.27
2017-11-10T02:13:14.460Z,20.13
2017-11-10T02:15:42.691Z,22.87
2017-11-10T02:18:10.959Z,22.30
2017-11-10T02:20:39.207Z,21.93
2017-11-10T02:23:07.448Z,20.53
2017-11-10T02:25:35.716Z,19.30
2017-11-10T02:28:03.962Z,21.77
2017-11-10T02:30:32.211Z,19.67
2017-11-10T02:33:00.696Z,24.83
2017-11-10T02:35:28.954Z,22.20
2017-11-10T02:37:57.438Z,22.30
2017-11-10T02:40:25.707Z,23.00
2017-11-10T02:42:53.951Z,22.60
2017-11-10T02:45:23.127Z,23.33
2017-11-10T02:47:51.395Z,20.63
2017-11-10T02:50:19.642Z,21.10
2017-11-10T02:52:47.887Z,21.93
2017-11-10T02:55:16.251Z,21.00
2017-11-10T02:57:44.501Z,14.97
2017-11-10T03:00:12.742Z,20.43
2017-11-10T03:02:41.018Z,20.07
2017-11-10T03:05:09.251Z,17.60
2017-11-10T03:07:37.504Z,22.00
2017-11-10T03:10:05.781Z,21.40
2017-11-10T03:12:34.024Z,21.23
2017-11-10T03:15:02.267Z,19.93
2017-11-10T03:17:30.647Z,20.47
2017-11-10T03:19:58.891Z,20.40
2017-11-10T03:22:27.432Z,19.37
2017-11-10T03:24:55.693Z,17.20
2017-11-10T03:27:24.712Z,18.30
2017-11-10T03:29:52.960Z,18.50
2017-11-10T03:32:21.228Z,18.00
2017-11-10T03:34:49.475Z,18.57
2017-11-10T03:37:17.716Z,19.27
2017-11-10T03:39:46.373Z,17.10
2017-11-10T03:42:14.619Z,16.73
2017-11-10T03:44:42.867Z,17.40
2017-11-10T03:47:11.139Z,18.57
2017-11-10T03:49:39.379Z,17.50
2017-11-10T03:52:07.622Z,17.00
2017-11-10T03:54:36.095Z,12.27
2017-11-10T03:57:04.335Z,12.70
2017-11-10T03:59:32.571Z,18.43
2017-11-10T04:02:01.109Z,17.70
2017-11-10T04:04:29.347Z,17.30
2017-11-10T04:06:57.603Z,15.43
2017-11-10T04:09:25.871Z,17.33
2017-11-10T04:11:54.121Z,14.60
2017-11-10T04:14:22.376Z,15.43
2017-11-10T04:16:50.636Z,18.33
2017-11-10T04:19:18.881Z,18.43
2017-11-10T04:21:47.124Z,18.97
2017-11-10T04:24:15.475Z,17.57
2017-11-10T04:26:43.947Z,18.67
2017-11-10T04:29:12.955Z,17.97
2017-11-10T04:31:41.230Z,15.73
2017-11-10T04:34:09.471Z,16.73
2017-11-10T04:36:37.719Z,18.00
2017-11-10T04:39:06.368Z,18.10
2017-11-10T04:41:34.650Z,17.93
2017-11-10T04:44:02.895Z,14.37
2017-11-10T04:46:32.556Z,16.70
2017-11-10T04:49:00.803Z,18.53
2017-11-10T04:51:29.079Z,16.60
2017-11-10T04:53:57.347Z,17.30
2017-11-10T04:56:25.590Z,19.57
2017-11-10T04:58:56.013Z,15.70
2017-11-10T05:01:24.280Z,17.20
2017-11-10T05:03:52.524Z,16.20
2017-11-10T05:06:20.769Z,16.97
2017-11-10T05:08:50.119Z,19.23
2017-11-10T05:11:18.366Z,15.73
2017-11-10T05:13:46.615Z,16.93
2017-11-10T05:16:14.894Z,13.77
2017-11-10T05:18:43.902Z,12.07
2017-11-10T05:21:12.911Z,16.30
2017-11-10T05:23:41.190Z,18.53
2017-11-10T05:26:09.615Z,18.17
2017-11-10T05:28:37.865Z,17.03
2017-11-10T05:31:06.187Z,16.40
2017-11-10T05:33:34.446Z,17.30
2017-11-10T05:36:02.691Z,19.53
2017-11-10T05:38:30.959Z,13.80
2017-11-10T05:40:59.205Z,17.57
2017-11-10T05:43:27.619Z,19.53
2017-11-10T05:45:55.886Z,20.30
2017-11-10T05:48:24.139Z,17.07
2017-11-10T05:50:53.155Z,19.00
2017-11-10T05:53:21.876Z,18.80
2017-11-10T05:55:50.223Z,16.47
2017-11-10T05:58:18.479Z,16.20
2017-11-10T06:00:46.752Z,19.30
2017-11-10T06:03:15.764Z,16.50
2017-11-10T06:05:44.016Z,18.70
2017-11-10T06:08:13.052Z,18.27
2017-11-10T06:10:41.291Z,17.23
2017-11-10T06:13:09.541Z,17.53
2017-11-10T06:15:38.200Z,17.07
2017-11-10T06:18:06.456Z,19.33
2017-11-10T06:20:34.704Z,16.93
2017-11-10T06:23:03.735Z,18.40
2017-11-10T06:25:31.984Z,17.73
2017-11-10T06:28:00.994Z,19.33
2017-11-10T06:30:29.267Z,19.30
2017-11-10T06:32:57.511Z,19.27
2017-11-10T06:35:25.755Z,18.23
2017-11-10T06:37:54.233Z,15.73
2017-11-10T06:40:22.475Z,18.17
2017-11-10T06:42:50.723Z,18.17
2017-11-10T06:45:19.348Z,19.10
2017-11-10T06:47:47.587Z,18.50
2017-11-10T06:50:15.829Z,18.57
2017-11-10T06:52:44.090Z,17.43
2017-11-10T06:55:12.345Z,18.93
2017-11-10T06:57:40.595Z,19.53
2017-11-10T07:00:09.719Z,18.90
2017-11-10T07:02:37.970Z,16.03
2017-11-10T07:05:06.978Z,14.23
2017-11-10T07:07:35.247Z,16.37
2017-11-10T07:10:03.490Z,16.20
2017-11-10T07:12:31.743Z,14.77
2017-11-10T07:15:00.016Z,13.47
2017-11-10T07:17:29.459Z,14.90
2017-11-10T07:19:57.715Z,15.43
2017-11-10T07:22:26.603Z,16.70
2017-11-10T07:24:54.831Z,14.93
2017-11-10T07:27:23.080Z,17.57
2017-11-10T07:29:51.683Z,15.53
2017-11-10T07:32:19.920Z,15.70
2017-11-10T07:34:48.160Z,14.13
2017-11-10T07:37:16.426Z,11.03
2017-11-10T07:39:44.675Z,14.83
2017-11-10T07:42:12.935Z,9.30
2017-11-10T07:44:41.387Z,16.97
2017-11-10T07:47:10.031Z,17.07
2017-11-10T07:49:39.048Z,17.93
2017-11-10T07:52:08.319Z,18.20
2017-11-10T07:54:37.343Z,14.23
2017-11-10T07:57:05.583Z,10.33
2017-11-10T07:59:33.864Z,14.10
2017-11-10T08:02:02.867Z,16.70
2017-11-10T08:04:31.875Z,16.90
2017-11-10T08:07:00.482Z,19.17
2017-11-10T08:09:28.730Z,17.40
2017-11-10T08:11:56.974Z,17.80
2017-11-10T08:14:25.244Z,18.33
2017-11-10T08:16:53.511Z,16.43
2017-11-10T08:19:21.751Z,19.80
2017-11-10T08:21:50.028Z,14.40
2017-11-10T08:24:18.275Z,13.40
2017-11-10T08:26:46.531Z,15.50
2017-11-10T08:29:15.279Z,16.90
2017-11-10T08:31:43.523Z,14.97
2017-11-10T08:34:11.763Z,16.00
2017-11-10T08:36:40.035Z,16.83
2017-11-10T08:39:08.287Z,11.10
2017-11-10T08:41:36.531Z,14.00
2017-11-10T08:44:05.559Z,12.03
2017-11-10T08:46:33.811Z,15.30
2017-11-10T08:49:02.583Z,14.50
2017-11-10T08:51:32.229Z,10.93
2017-11-10T08:54:00.466Z,10.70
2017-11-10T08:56:28.720Z,13.33
2017-11-10T08:58:56.992Z,13.60
2017-11-10T09:01:25.237Z,13.10
2017-11-10T09:03:53.487Z,13.73
2017-11-10T09:06:21.751Z,14.83
2017-11-10T09:08:50.005Z,13.50
2017-11-10T09:11:18.264Z,14.77
2017-11-10T09:13:46.741Z,14.37
2017-11-10T09:16:14.983Z,15.30
2017-11-10T09:18:43.235Z,13.47
2017-11-10T09:21:11.504Z,13.10
2017-11-10T09:23:40.519Z,13.07
2017-11-10T09:26:08.763Z,14.30
2017-11-10T09:32:05.608Z,14.23
2017-11-10T09:34:45.603Z,12.57
2017-11-10T09:37:33.407Z,12.00
2017-11-10T09:40:16.195Z,10.33
2017-11-10T09:42:50.090Z,11.30
2017-11-10T09:45:35.514Z,12.10
2017-11-10T09:48:21.579Z,12.43
2017-11-10T09:50:55.411Z,11.13
2017-11-10T09:53:44.358Z,12.70
2017-11-10T09:56:17.124Z,9.70
2017-11-10T09:58:47.892Z,11.70
2017-11-10T10:01:32.866Z,12.33
2017-11-10T10:04:02.599Z,10.80
2017-11-10T10:06:50.535Z,10.60
2017-11-10T10:09:23.446Z,9.60
2017-11-10T10:11:57.275Z,7.00
2017-11-10T10:14:31.175Z,10.97
2017-11-10T10:17:05.201Z,10.53
2017-11-10T10:19:39.034Z,9.70
2017-11-10T10:22:09.224Z,11.80
2017-11-10T10:24:37.467Z,7.80
2017-11-10T10:27:05.702Z,9.90
2017-11-10T10:29:35.128Z,12.30
2017-11-10T10:32:04.148Z,11.37
2017-11-10T10:34:32.400Z,11.73
2017-11-10T10:37:01.243Z,11.27
2017-11-10T10:39:29.488Z,13.00
2017-11-10T10:41:57.735Z,12.17
2017-11-10T10:44:26.004Z,9.83
2017-11-10T10:46:54.250Z,12.43
2017-11-10T10:49:22.495Z,9.67
2017-11-10T10:51:51.178Z,12.10
2017-11-10T10:54:19.423Z,10.80
2017-11-10T10:56:47.672Z,13.90
2017-11-10T10:59:16.336Z,10.93
2017-11-10T11:01:44.583Z,11.57
2017-11-10T11:04:12.836Z,13.17
2017-11-10T11:06:41.100Z,13.50
2017-11-10T11:09:09.343Z,9.40
2017-11-10T11:11:37.598Z,11.10
2017-11-10T11:14:05.867Z,12.67
2017-11-10T11:16:34.112Z,11.13
2017-11-10T11:19:02.365Z,12.03
2017-11-10T11:21:31.134Z,9.47
2017-11-10T11:23:59.382Z,12.90
2017-11-10T11:26:27.627Z,9.50
2017-11-10T11:28:55.947Z,10.13
2017-11-10T11:31:24.199Z,8.73
2017-11-10T11:33:52.540Z,11.77
2017-11-10T11:36:20.790Z,9.70
2017-11-10T11:38:49.023Z,9.80
2017-11-10T11:41:17.275Z,8.90
2017-11-10T11:43:45.612Z,10.30
2017-11-10T11:46:13.841Z,11.43
2017-11-10T11:48:42.121Z,10.47
2017-11-10T11:51:10.375Z,10.30
2017-11-10T11:53:39.045Z,9.77
2017-11-10T11:56:07.283Z,10.30
2017-11-10T11:58:35.555Z,10.97
2017-11-10T12:01:04.590Z,10.73
2017-11-10T12:03:32.823Z,8.10
2017-11-10T12:06:01.134Z,12.07
2017-11-10T12:08:29.379Z,7.87
2017-11-10T12:10:58.379Z,11.37
2017-11-10T12:13:26.656Z,11.00
2017-11-10T12:15:54.916Z,11.93
2017-11-10T12:18:23.143Z,9.63
2017-11-10T12:20:51.399Z,8.27
2017-11-10T12:23:19.699Z,11.57
2017-11-10T12:25:47.958Z,7.77
2017-11-10T12:28:16.559Z,9.10
2017-11-10T12:30:44.812Z,9.13
2017-11-10T12:33:13.043Z,7.97
2017-11-10T12:35:41.301Z,9.27
2017-11-10T12:38:09.543Z,11.40
2017-11-10T12:40:37.791Z,9.73
2017-11-10T12:43:06.821Z,9.77
2017-11-10T12:45:35.170Z,8.97
2017-11-10T12:48:03.395Z,8.80
2017-11-10T12:50:31.865Z,10.30
2017-11-10T12:53:00.102Z,8.87
2017-11-10T12:55:28.687Z,9.40
2017-11-10T12:57:56.962Z,8.43
2017-11-10T13:00:25.963Z,8.80
2017-11-10T13:02:54.972Z,8.17
2017-11-10T13:05:23.324Z,6.63
2017-11-10T13:07:52.327Z,8.50
2017-11-10T13:10:21.484Z,7.40
2017-11-10T13:12:49.868Z,6.60
2017-11-10T13:15:18.111Z,7.40
2017-11-10T13:17:46.351Z,7.37
2017-11-10T13:20:14.615Z,9.47
2017-11-10T13:22:42.880Z,7.40
2017-11-10T13:25:11.094Z,9.23
2017-11-10T13:27:39.371Z,7.43
2017-11-10T13:30:08.359Z,9.10
2017-11-10T13:32:37.376Z,8.00
2017-11-10T13:35:06.067Z,7.93
2017-11-10T13:37:34.303Z,7.40
2017-11-10T13:40:02.536Z,7.07
2017-11-10T13:42:30.796Z,6.70
2017-11-10T13:44:59.027Z,5.23
2017-11-10T13:47:27.259Z,5.47
2017-11-10T13:49:55.515Z,7.30
2017-11-10T13:52:23.751Z,6.17
2017-11-10T13:54:51.988Z,5.93
2017-11-10T13:57:20.563Z,5.53
2017-11-10T13:59:48.797Z,6.93
2017-11-10T14:02:17.034Z,4.80
2017-11-10T14:04:45.356Z,5.57
2017-11-10T14:07:14.369Z,4.90
2017-11-10T14:09:42.602Z,4.20
2017-11-10T14:12:11.199Z,4.77
2017-11-10T14:14:39.431Z,3.90
2017-11-10T14:17:07.669Z,5.30
2017-11-10T14:19:36.409Z,3.87
2017-11-10T14:22:04.675Z,4.93
2017-11-10T14:24:32.928Z,5.50
2017-11-10T14:27:01.172Z,5.00
2017-11-10T14:29:29.410Z,5.60
2017-11-10T14:31:57.642Z,5.30
2017-11-10T14:34:25.904Z,4.60
2017-11-10T14:36:54.919Z,5.10
2017-11-10T14:39:23.156Z,5.43
2017-11-10T14:41:51.715Z,4.40
2017-11-10T14:44:19.951Z,5.57
2017-11-10T14:46:48.175Z,6.23
2017-11-10T14:49:16.827Z,3.73
2017-11-10T14:51:45.137Z,5.67
2017-11-10T14:54:13.368Z,6.00
2017-11-10T14:56:41.620Z,3.50
2017-11-10T14:59:10.919Z,4.90
2017-11-10T15:01:39.919Z,3.83
2017-11-10T15:04:09.562Z,4.17
2017-11-10T15:06:37.804Z,3.13
2017-11-10T15:09:06.041Z,3.10
2017-11-10T15:11:34.291Z,3.90
2017-11-10T15:14:02.559Z,3.80
2017-11-10T15:16:30.796Z,4.17
2017-11-10T15:18:59.115Z,4.43
2017-11-10T15:21:27.731Z,3.00
2017-11-10T15:23:57.339Z,3.00
2017-11-10T15:26:26.216Z,3.80
2017-11-10T15:28:56.666Z,4.67
2017-11-10T15:31:25.082Z,5.10
2017-11-10T15:33:54.231Z,4.80
2017-11-10T15:36:23.651Z,3.90
2017-11-10T15:38:51.918Z,4.70
2017-11-10T15:41:20.267Z,4.57
2017-11-10T15:43:48.504Z,4.00
2017-11-10T15:46:17.515Z,4.40
2017-11-10T15:48:46.651Z,3.43
2017-11-10T15:51:16.063Z,3.47
2017-11-10T15:53:44.306Z,4.00
2017-11-10T15:56:12.575Z,3.50
2017-11-10T15:58:40.810Z,3.47
2017-11-10T16:01:09.066Z,2.90
2017-11-10T16:03:37.725Z,3.50
2017-11-10T16:06:06.027Z,2.70
2017-11-10T16:08:34.283Z,3.50
2017-11-10T16:11:03.951Z,3.10
2017-11-10T16:13:32.191Z,3.57
2017-11-10T16:16:02.623Z,2.60
2017-11-10T16:18:30.903Z,3.17
2017-11-10T16:20:59.189Z,3.50
2017-11-10T16:23:27.428Z,2.70
2017-11-10T16:25:55.872Z,3.00
2017-11-10T16:28:25.028Z,3.00
2017-11-10T16:30:53.251Z,2.90
2017-11-10T16:33:22.340Z,3.63
2017-11-10T16:35:50.570Z,3.30
2017-11-10T16:38:18.809Z,2.60
2017-11-10T16:40:47.421Z,2.90
2017-11-10T16:43:15.672Z,2.63
2017-11-10T16:45:44.119Z,3.13
2017-11-10T16:48:12.377Z,3.07
2017-11-10T16:50:40.611Z,2.40
2017-11-10T16:53:08.854Z,2.80
2017-11-10T16:55:37.179Z,2.57
2017-11-10T16:58:06.645Z,3.03
2017-11-10T17:00:35.951Z,2.70
2017-11-10T17:03:05.007Z,1.83
2017-11-10T17:05:33.246Z,2.80
2017-11-10T17:08:01.495Z,2.20
2017-11-10T17:10:29.763Z,1.77
2017-11-10T17:12:58.778Z,2.50
2017-11-10T17:15:27.023Z,2.43
2017-11-10T17:17:55.881Z,2.33
2017-11-10T17:20:24.115Z,1.90
2017-11-10T17:22:52.419Z,2.80
2017-11-10T17:25:21.873Z,2.87
2017-11-10T17:27:50.254Z,2.30
2017-11-10T17:30:18.504Z,2.60
2017-11-10T17:32:46.754Z,2.30
2017-11-10T17:35:15.005Z,2.40
2017-11-10T17:37:43.234Z,2.47
2017-11-10T17:40:11.895Z,1.50
2017-11-10T17:42:40.184Z,2.57
2017-11-10T17:45:08.571Z,2.00
2017-11-10T17:47:36.972Z,2.27
2017-11-10T17:50:05.223Z,3.77
2017-11-10T17:52:33.452Z,2.07
2017-11-10T17:55:02.789Z,2.90
2017-11-10T17:57:31.044Z,3.10
2017-11-10T17:59:59.283Z,3.30
2017-11-10T18:02:27.952Z,3.30
2017-11-10T18:04:56.187Z,3.03
2017-11-10T18:07:24.436Z,3.40
2017-11-10T18:09:52.700Z,3.50
2017-11-10T18:12:20.944Z,4.03
2017-11-10T18:14:49.179Z,3.90
2017-11-10T18:17:18.464Z,3.63
2017-11-10T18:19:47.492Z,3.77
2017-11-10T18:22:15.734Z,4.20
2017-11-10T18:24:44.607Z,4.10
2017-11-10T18:27:13.052Z,2.87
2017-11-10T18:29:41.283Z,3.33
2017-11-10T18:32:10.314Z,4.30
2017-11-10T18:34:38.560Z,4.27
2017-11-10T18:37:06.805Z,3.30
2017-11-10T18:39:35.314Z,3.50
2017-11-10T18:42:03.849Z,3.50
2017-11-10T18:44:32.067Z,3.03
2017-11-10T18:47:00.591Z,4.20
2017-11-10T18:49:31.506Z,4.20
2017-11-10T18:52:01.931Z,4.90
2017-11-10T18:54:32.955Z,4.60
2017-11-10T18:57:01.960Z,5.20
2017-11-10T18:59:30.435Z,4.60
2017-11-10T19:01:59.443Z,4.30
2017-11-10T19:04:27.682Z,4.23
2017-11-10T19:06:56.533Z,3.83
2017-11-10T19:09:24.779Z,3.40
2017-11-10T19:11:53.223Z,2.63
2017-11-10T19:14:21.569Z,4.00
2017-11-10T19:16:49.831Z,3.43
2017-11-10T19:19:18.081Z,3.87
2017-11-10T19:21:47.241Z,2.30
2017-11-10T19:24:15.471Z,3.10
2017-11-10T19:26:45.644Z,2.57
2017-11-10T19:29:14.160Z,2.13
2017-11-10T19:31:42.403Z,2.63
2017-11-10T19:34:10.784Z,3.60
2017-11-10T19:36:39.059Z,3.30
2017-11-10T19:39:07.291Z,2.60
2017-11-10T19:41:35.539Z,2.93
2017-11-10T19:44:04.296Z,2.43
2017-11-10T19:46:32.589Z,3.80
2017-11-10T19:49:01.044Z,2.50
2017-11-10T19:51:29.814Z,2.40
2017-11-10T19:53:58.120Z,1.67
2017-11-10T19:56:27.436Z,1.80
2017-11-10T19:58:55.688Z,2.10
2017-11-10T20:01:23.950Z,2.33
2017-11-10T20:03:52.452Z,2.10
2017-11-10T20:06:20.828Z,3.00
2017-11-10T20:08:51.169Z,1.87
2017-11-10T20:11:19.439Z,2.43
2017-11-10T20:13:48.003Z,2.37
2017-11-10T20:16:16.251Z,2.77
2017-11-10T20:18:44.489Z,2.27
2017-11-10T20:21:13.133Z,2.40
2017-11-10T20:23:41.407Z,3.10
2017-11-10T20:26:09.642Z,2.43
2017-11-10T20:28:37.939Z,2.73
2017-11-10T20:31:06.934Z,2.80
2017-11-10T20:33:35.190Z,3.23
2017-11-10T20:36:03.495Z,2.40
2017-11-10T20:38:31.743Z,2.93
2017-11-10T20:41:00.775Z,3.20
2017-11-10T20:43:29.040Z,4.50
2017-11-10T20:45:57.350Z,2.57
2017-11-10T20:48:25.567Z,3.47
2017-11-10T20:50:54.723Z,2.83
2017-11-10T20:53:22.968Z,4.33
2017-11-10T20:55:51.215Z,4.33
2017-11-10T20:58:20.030Z,4.37
2017-11-10T21:00:48.272Z,3.33
2017-11-10T21:03:16.499Z,4.10
2017-11-10T21:05:44.940Z,4.70
2017-11-10T21:08:13.940Z,3.63
2017-11-10T21:10:42.942Z,4.40
2017-11-10T21:13:11.203Z,4.17
2017-11-10T21:15:40.213Z,3.57
2017-11-10T21:18:08.463Z,3.20
2017-11-10T21:20:36.923Z,4.70
2017-11-10T21:23:05.143Z,6.27
2017-11-10T21:25:33.383Z,5.23
2017-11-10T21:28:01.647Z,4.47
2017-11-10T21:30:29.890Z,4.70
2017-11-10T21:32:58.126Z,3.73
2017-11-10T21:35:27.087Z,5.17
2017-11-10T21:37:55.373Z,4.60
2017-11-10T21:40:23.606Z,4.60
2017-11-10T21:42:52.412Z,5.07
2017-11-10T21:45:20.703Z,4.30
2017-11-10T21:47:48.947Z,4.00
2017-11-10T21:50:17.199Z,4.60
2017-11-10T21:52:46.204Z,4.80
2017-11-10T21:55:15.207Z,3.70
2017-11-10T21:57:43.463Z,3.93
2017-11-10T22:00:11.703Z,5.20
2017-11-10T22:02:39.975Z,3.90
2017-11-10T22:05:08.397Z,4.10
2017-11-10T22:07:37.695Z,4.10
2017-11-10T22:10:06.692Z,4.33
2017-11-10T22:12:36.049Z,4.77
2017-11-10T22:15:04.267Z,4.30
2017-11-10T22:17:32.507Z,3.60
2017-11-10T22:20:00.768Z,4.23
2017-11-10T22:22:29.008Z,5.17
2017-11-10T22:24:57.266Z,3.90
2017-11-10T22:27:25.999Z,5.17
2017-11-10T22:29:54.253Z,4.37
2017-11-10T22:32:22.480Z,5.70
2017-11-10T22:34:50.730Z,4.97
2017-11-10T22:37:18.967Z,4.30
2017-11-10T22:39:47.975Z,4.77
2017-11-10T22:42:16.231Z,4.43
2017-11-10T22:44:45.238Z,4.60
2017-11-10T22:47:14.246Z,3.97
2017-11-10T22:49:43.072Z,3.20
2017-11-10T22:52:11.324Z,4.87
2017-11-10T22:54:39.554Z,4.73
2017-11-10T22:57:07.817Z,3.73
2017-11-10T22:59:36.055Z,5.03
2017-11-10T23:02:04.300Z,5.87
2017-11-10T23:04:32.602Z,5.60
2017-11-10T23:07:00.830Z,5.90
2017-11-10T23:09:29.210Z,5.53
2017-11-10T23:11:57.759Z,4.03
2017-11-10T23:14:26.030Z,3.00
2017-11-10T23:16:54.267Z,3.60
2017-11-10T23:19:22.531Z,2.70
2017-11-10T23:21:51.779Z,3.77
2017-11-10T23:24:20.058Z,3.53
2017-11-10T23:26:48.568Z,3.93
2017-11-10T23:29:16.809Z,3.60
2017-11-10T23:31:45.065Z,3.73
2017-11-10T23:34:13.779Z,5.50
2017-11-10T23:36:42.016Z,2.90
2017-11-10T23:39:10.269Z,4.17
2017-11-10T23:41:38.571Z,3.53
2017-11-10T23:44:07.580Z,3.63
2017-11-10T23:46:35.845Z,3.90
2017-11-10T23:49:04.111Z,4.30
2017-11-10T23:51:32.359Z,5.17
2017-11-10T23:54:00.602Z,3.93
2017-11-10T23:56:29.188Z,3.10
2017-11-10T23:58:57.427Z,4.03
